sensor_id;sensor_type;location;lat;lon;timestamp;pressure;altitude;pressure_sealevel;temperature;humidity
57232;BME280;43488;46.934;8.276;2023-05-23T00:01:13;96401.41;;;16.78;100.00
57232;BME280;43488;46.934;8.276;2023-05-23T00:03:43;96396.13;;;16.61;100.00
57232;BME280;43488;46.934;8.276;2023-05-23T00:06:11;96395.34;;;16.61;100.00
57232;BME280;43488;46.934;8.276;2023-05-23T00:08:39;96393.00;;;16.64;100.00
57232;BME280;43488;46.934;8.276;2023-05-23T00:11:07;96392.44;;;16.62;100.00
57232;BME280;43488;46.934;8.276;2023-05-23T00:13:34;96392.63;;;16.56;100.00
57232;BME280;43488;46.934;8.276;2023-05-23T00:16:02;96389.41;;;16.54;100.00
57232;BME280;43488;46.934;8.276;2023-05-23T00:18:31;96388.22;;;16.44;100.00
57232;BME280;43488;46.934;8.276;2023-05-23T00:20:58;96379.16;;;16.40;100.00
57232;BME280;43488;46.934;8.276;2023-05-23T00:23:25;96374.72;;;16.46;100.00
57232;BME280;43488;46.934;8.276;2023-05-23T00:25:55;96375.19;;;16.43;100.00
57232;BME280;43488;46.934;8.276;2023-05-23T00:28:24;96373.03;;;16.40;100.00
57232;BME280;43488;46.934;8.276;2023-05-23T00:30:52;96372.50;;;16.38;100.00
57232;BME280;43488;46.934;8.276;2023-05-23T00:33:19;96379.88;;;16.36;100.00
57232;BME280;43488;46.934;8.276;2023-05-23T00:35:47;96372.16;;;16.34;100.00
57232;BME280;43488;46.934;8.276;2023-05-23T00:38:16;96369.75;;;16.33;100.00
57232;BME280;43488;46.934;8.276;2023-05-23T00:40:43;96370.50;;;16.28;100.00
57232;BME280;43488;46.934;8.276;2023-05-23T00:43:11;96374.53;;;16.31;100.00
57232;BME280;43488;46.934;8.276;2023-05-23T00:45:38;96383.78;;;16.28;100.00
57232;BME280;43488;46.934;8.276;2023-05-23T00:48:07;96381.06;;;16.23;100.00
57232;BME280;43488;46.934;8.276;2023-05-23T00:50:35;96381.72;;;16.13;100.00
57232;BME280;43488;46.934;8.276;2023-05-23T00:53:03;96380.91;;;16.13;100.00
57232;BME280;43488;46.934;8.276;2023-05-23T00:55:31;96383.28;;;16.09;100.00
57232;BME280;43488;46.934;8.276;2023-05-23T00:57:59;96387.16;;;16.02;100.00
57232;BME280;43488;46.934;8.276;2023-05-23T01:00:27;96391.88;;;16.00;100.00
57232;BME280;43488;46.934;8.276;2023-05-23T01:02:56;96391.28;;;15.92;100.00
57232;BME280;43488;46.934;8.276;2023-05-23T01:05:24;96394.47;;;15.95;100.00
57232;BME280;43488;46.934;8.276;2023-05-23T01:07:53;96400.03;;;15.93;100.00
57232;BME280;43488;46.934;8.276;2023-05-23T01:10:26;96400.84;;;15.93;100.00
57232;BME280;43488;46.934;8.276;2023-05-23T01:16:16;96412.91;;;15.84;100.00
57232;BME280;43488;46.934;8.276;2023-05-23T01:19:07;96410.56;;;15.88;100.00
57232;BME280;43488;46.934;8.276;2023-05-23T01:21:46;96402.34;;;15.89;100.00
57232;BME280;43488;46.934;8.276;2023-05-23T01:24:46;96396.25;;;15.89;100.00
57232;BME280;43488;46.934;8.276;2023-05-23T01:27:44;96395.94;;;15.85;100.00
57232;BME280;43488;46.934;8.276;2023-05-23T01:30:17;96399.88;;;15.83;100.00
57232;BME280;43488;46.934;8.276;2023-05-23T01:32:47;96397.22;;;15.83;100.00
57232;BME280;43488;46.934;8.276;2023-05-23T01:35:26;96389.03;;;15.84;100.00
57232;BME280;43488;46.934;8.276;2023-05-23T01:37:54;96386.28;;;15.79;100.00
57232;BME280;43488;46.934;8.276;2023-05-23T01:40:23;96386.78;;;15.76;100.00
57232;BME280;43488;46.934;8.276;2023-05-23T01:42:54;96394.25;;;15.79;100.00
57232;BME280;43488;46.934;8.276;2023-05-23T01:45:26;96392.13;;;15.81;100.00
57232;BME280;43488;46.934;8.276;2023-05-23T01:47:55;96390.63;;;15.85;100.00
57232;BME280;43488;46.934;8.276;2023-05-23T01:50:24;96380.97;;;15.79;100.00
57232;BME280;43488;46.934;8.276;2023-05-23T01:52:55;96391.44;;;15.86;100.00
57232;BME280;43488;46.934;8.276;2023-05-23T01:55:24;96389.03;;;15.84;100.00
57232;BME280;43488;46.934;8.276;2023-05-23T01:57:56;96392.63;;;15.78;100.00
57232;BME280;43488;46.934;8.276;2023-05-23T02:00:24;96393.03;;;15.70;100.00
57232;BME280;43488;46.934;8.276;2023-05-23T02:02:51;96386.63;;;15.66;100.00
57232;BME280;43488;46.934;8.276;2023-05-23T02:05:19;96387.66;;;15.65;100.00
57232;BME280;43488;46.934;8.276;2023-05-23T02:07:47;96392.38;;;15.63;100.00
57232;BME280;43488;46.934;8.276;2023-05-23T02:10:15;96388.59;;;15.59;100.00
57232;BME280;43488;46.934;8.276;2023-05-23T02:12:42;96387.53;;;15.60;100.00
57232;BME280;43488;46.934;8.276;2023-05-23T02:15:10;96397.34;;;15.59;100.00
57232;BME280;43488;46.934;8.276;2023-05-23T02:17:37;96399.22;;;15.59;100.00
57232;BME280;43488;46.934;8.276;2023-05-23T02:20:06;96393.81;;;15.54;100.00
57232;BME280;43488;46.934;8.276;2023-05-23T02:22:34;96390.75;;;15.45;100.00
57232;BME280;43488;46.934;8.276;2023-05-23T02:25:01;96395.44;;;15.38;100.00
57232;BME280;43488;46.934;8.276;2023-05-23T02:27:29;96395.75;;;15.42;100.00
57232;BME280;43488;46.934;8.276;2023-05-23T02:29:56;96390.19;;;15.43;100.00
57232;BME280;43488;46.934;8.276;2023-05-23T02:32:23;96392.84;;;15.43;100.00
57232;BME280;43488;46.934;8.276;2023-05-23T02:34:51;96397.09;;;15.44;100.00
57232;BME280;43488;46.934;8.276;2023-05-23T02:37:18;96392.84;;;15.43;100.00
57232;BME280;43488;46.934;8.276;2023-05-23T02:39:46;96394.44;;;15.44;100.00
57232;BME280;43488;46.934;8.276;2023-05-23T02:42:13;96399.44;;;15.41;100.00
57232;BME280;43488;46.934;8.276;2023-05-23T02:44:41;96397.34;;;15.43;100.00
57232;BME280;43488;46.934;8.276;2023-05-23T02:47:08;96395.75;;;15.42;100.00
57232;BME280;43488;46.934;8.276;2023-05-23T02:49:35;96397.44;;;15.48;100.00
57232;BME280;43488;46.934;8.276;2023-05-23T02:52:02;96401.69;;;15.49;100.00
57232;BME280;43488;46.934;8.276;2023-05-23T02:54:30;96410.84;;;15.41;100.00
57232;BME280;43488;46.934;8.276;2023-05-23T02:56:57;96409.16;;;15.35;100.00
57232;BME280;43488;46.934;8.276;2023-05-23T02:59:25;96410.94;;;15.29;100.00
57232;BME280;43488;46.934;8.276;2023-05-23T03:01:52;96411.88;;;15.23;100.00
57232;BME280;43488;46.934;8.276;2023-05-23T03:04:29;96415.94;;;15.14;100.00
57232;BME280;43488;46.934;8.276;2023-05-23T03:06:57;96414.72;;;15.05;100.00
57232;BME280;43488;46.934;8.276;2023-05-23T03:09:25;96413.13;;;15.04;100.00
57232;BME280;43488;46.934;8.276;2023-05-23T03:11:53;96414.72;;;15.05;100.00
57232;BME280;43488;46.934;8.276;2023-05-23T03:14:20;96409.91;;;15.02;100.00
57232;BME280;43488;46.934;8.276;2023-05-23T03:16:49;96408.63;;;15.04;100.00
57232;BME280;43488;46.934;8.276;2023-05-23T03:19:16;96412.63;;;15.07;100.00
57232;BME280;43488;46.934;8.276;2023-05-23T03:21:46;96413.22;;;15.09;100.00
57232;BME280;43488;46.934;8.276;2023-05-23T03:24:13;96408.38;;;15.06;100.00
57232;BME280;43488;46.934;8.276;2023-05-23T03:26:41;96404.59;;;15.02;100.00
57232;BME280;43488;46.934;8.276;2023-05-23T03:29:08;96409.25;;;14.95;100.00
57232;BME280;43488;46.934;8.276;2023-05-23T03:31:37;96414.31;;;14.96;100.00
57232;BME280;43488;46.934;8.276;2023-05-23T03:34:04;96418.25;;;14.94;100.00
57232;BME280;43488;46.934;8.276;2023-05-23T03:36:31;96419.53;;;14.91;100.00
57232;BME280;43488;46.934;8.276;2023-05-23T03:39:05;96417.09;;;14.90;100.00
57232;BME280;43488;46.934;8.276;2023-05-23T03:41:32;96415.59;;;14.94;100.00
57232;BME280;43488;46.934;8.276;2023-05-23T03:43:59;96420.53;;;14.90;100.00
57232;BME280;43488;46.934;8.276;2023-05-23T03:46:26;96419.16;;;14.88;100.00
57232;BME280;43488;46.934;8.276;2023-05-23T03:48:54;96415.97;;;14.86;100.00
57232;BME280;43488;46.934;8.276;2023-05-23T03:51:21;96413.00;;;14.82;100.00
57232;BME280;43488;46.934;8.276;2023-05-23T03:53:50;96417.25;;;14.83;100.00
57232;BME280;43488;46.934;8.276;2023-05-23T03:56:17;96416.53;;;14.88;100.00
57232;BME280;43488;46.934;8.276;2023-05-23T03:58:45;96425.75;;;14.85;100.00
57232;BME280;43488;46.934;8.276;2023-05-23T04:01:12;96431.63;;;14.87;100.00
57232;BME280;43488;46.934;8.276;2023-05-23T04:03:39;96431.63;;;14.87;100.00
57232;BME280;43488;46.934;8.276;2023-05-23T04:06:06;96431.88;;;14.86;100.00
57232;BME280;43488;46.934;8.276;2023-05-23T04:08:34;96428.16;;;14.87;100.00
57232;BME280;43488;46.934;8.276;2023-05-23T04:11:01;96426.44;;;14.80;100.00
57232;BME280;43488;46.934;8.276;2023-05-23T04:13:29;96435.91;;;14.76;100.00
57232;BME280;43488;46.934;8.276;2023-05-23T04:16:01;96427.66;;;14.73;100.00
57232;BME280;43488;46.934;8.276;2023-05-23T04:18:32;96447.31;;;14.77;100.00
57232;BME280;43488;46.934;8.276;2023-05-23T04:20:59;96439.69;;;14.80;100.00
57232;BME280;43488;46.934;8.276;2023-05-23T04:23:26;96444.56;;;14.84;100.00
57232;BME280;43488;46.934;8.276;2023-05-23T04:25:55;96449.47;;;14.92;100.00
57232;BME280;43488;46.934;8.276;2023-05-23T04:28:25;96447.16;;;14.95;100.00
57232;BME280;43488;46.934;8.276;2023-05-23T04:30:54;96452.78;;;14.99;100.00
57232;BME280;43488;46.934;8.276;2023-05-23T04:33:23;96453.13;;;15.02;100.00
57232;BME280;43488;46.934;8.276;2023-05-23T04:35:51;96452.41;;;15.07;100.00
57232;BME280;43488;46.934;8.276;2023-05-23T04:38:19;96454.00;;;15.08;100.00
57232;BME280;43488;46.934;8.276;2023-05-23T04:40:50;96449.50;;;15.08;100.00
57232;BME280;43488;46.934;8.276;2023-05-23T04:43:20;96451.59;;;15.06;100.00
57232;BME280;43488;46.934;8.276;2023-05-23T04:45:48;96451.59;;;15.06;100.00
57232;BME280;43488;46.934;8.276;2023-05-23T04:48:21;96453.56;;;15.11;100.00
57232;BME280;43488;46.934;8.276;2023-05-23T04:50:48;96444.56;;;15.12;100.00
57232;BME280;43488;46.934;8.276;2023-05-23T04:53:18;96448.09;;;15.18;100.00
57232;BME280;43488;46.934;8.276;2023-05-23T04:55:45;96453.38;;;15.18;100.00
57232;BME280;43488;46.934;8.276;2023-05-23T04:58:12;96456.88;;;15.18;100.00
57232;BME280;43488;46.934;8.276;2023-05-23T05:00:40;96454.31;;;15.23;100.00
57232;BME280;43488;46.934;8.276;2023-05-23T05:03:07;96455.22;;;15.29;100.00
57232;BME280;43488;46.934;8.276;2023-05-23T05:05:36;96461.38;;;15.34;100.00
57232;BME280;43488;46.934;8.276;2023-05-23T05:08:04;96456.69;;;15.36;100.00
57232;BME280;43488;46.934;8.276;2023-05-23T05:10:31;96470.16;;;15.35;100.00
57232;BME280;43488;46.934;8.276;2023-05-23T05:12:59;96466.00;;;15.39;100.00
57232;BME280;43488;46.934;8.276;2023-05-23T05:15:26;96466.44;;;15.36;100.00
57232;BME280;43488;46.934;8.276;2023-05-23T05:17:54;96472.59;;;15.36;100.00
57232;BME280;43488;46.934;8.276;2023-05-23T05:20:22;96475.94;;;15.32;100.00
57232;BME280;43488;46.934;8.276;2023-05-23T05:22:56;96469.94;;;15.36;100.00
57232;BME280;43488;46.934;8.276;2023-05-23T05:25:28;96470.50;;;15.39;100.00
57232;BME280;43488;46.934;8.276;2023-05-23T05:28:01;96471.72;;;15.48;100.00
57232;BME280;43488;46.934;8.276;2023-05-23T05:30:34;96471.63;;;15.43;100.00
57232;BME280;43488;46.934;8.276;2023-05-23T05:33:03;96474.75;;;15.40;100.00
57232;BME280;43488;46.934;8.276;2023-05-23T05:35:31;96465.75;;;15.41;100.00
57232;BME280;43488;46.934;8.276;2023-05-23T05:38:01;96471.97;;;15.46;100.00
57232;BME280;43488;46.934;8.276;2023-05-23T05:40:31;96469.88;;;15.48;100.00
57232;BME280;43488;46.934;8.276;2023-05-23T05:42:59;96464.63;;;15.53;100.00
57232;BME280;43488;46.934;8.276;2023-05-23T05:45:26;96472.44;;;15.60;100.00
57232;BME280;43488;46.934;8.276;2023-05-23T05:47:54;96470.19;;;15.63;100.00
57232;BME280;43488;46.934;8.276;2023-05-23T05:50:21;96470.84;;;15.59;100.00
57232;BME280;43488;46.934;8.276;2023-05-23T05:52:48;96468.78;;;15.61;100.00
57232;BME280;43488;46.934;8.276;2023-05-23T05:55:16;96464.03;;;15.63;100.00
57232;BME280;43488;46.934;8.276;2023-05-23T05:57:43;96470.25;;;15.69;100.00
57232;BME280;43488;46.934;8.276;2023-05-23T06:00:13;96473.63;;;15.81;100.00
57232;BME280;43488;46.934;8.276;2023-05-23T06:02:45;96470.81;;;15.87;100.00
57232;BME280;43488;46.934;8.276;2023-05-23T06:05:24;96463.91;;;15.86;100.00
57232;BME280;43488;46.934;8.276;2023-05-23T06:07:52;96467.19;;;15.93;100.00
57232;BME280;43488;46.934;8.276;2023-05-23T06:10:19;96471.22;;;15.96;100.00
57232;BME280;43488;46.934;8.276;2023-05-23T06:12:48;96459.94;;;16.06;100.00
57232;BME280;43488;46.934;8.276;2023-05-23T06:15:15;96468.06;;;16.16;100.00
57232;BME280;43488;46.934;8.276;2023-05-23T06:17:43;96475.38;;;16.26;100.00
57232;BME280;43488;46.934;8.276;2023-05-23T06:20:11;96461.84;;;16.27;100.00
57232;BME280;43488;46.934;8.276;2023-05-23T06:22:39;96467.50;;;16.31;100.00
57232;BME280;43488;46.934;8.276;2023-05-23T06:25:06;96465.22;;;16.39;100.00
57232;BME280;43488;46.934;8.276;2023-05-23T06:27:34;96467.94;;;16.44;100.00
57232;BME280;43488;46.934;8.276;2023-05-23T06:30:05;96469.19;;;16.59;100.00
57232;BME280;43488;46.934;8.276;2023-05-23T06:32:32;96469.81;;;16.66;100.00
57232;BME280;43488;46.934;8.276;2023-05-23T06:35:00;96461.47;;;16.74;100.00
57232;BME280;43488;46.934;8.276;2023-05-23T06:37:27;96462.06;;;16.81;100.00
57232;BME280;43488;46.934;8.276;2023-05-23T06:39:55;96459.97;;;16.83;100.00
57232;BME280;43488;46.934;8.276;2023-05-23T06:42:24;96460.91;;;16.94;100.00
57232;BME280;43488;46.934;8.276;2023-05-23T06:44:51;96464.19;;;17.01;100.00
57232;BME280;43488;46.934;8.276;2023-05-23T06:47:19;96462.44;;;17.12;100.00
57232;BME280;43488;46.934;8.276;2023-05-23T06:49:46;96464.94;;;17.23;100.00
57232;BME280;43488;46.934;8.276;2023-05-23T06:52:13;96463.19;;;17.34;100.00
57232;BME280;43488;46.934;8.276;2023-05-23T06:54:41;96458.41;;;17.36;100.00
57232;BME280;43488;46.934;8.276;2023-05-23T06:57:08;96459.00;;;17.43;100.00
57232;BME280;43488;46.934;8.276;2023-05-23T06:59:35;96469.28;;;17.56;100.00
57232;BME280;43488;46.934;8.276;2023-05-23T07:02:04;96468.34;;;17.46;100.00
57232;BME280;43488;46.934;8.276;2023-05-23T07:04:31;96461.94;;;17.42;100.00
57232;BME280;43488;46.934;8.276;2023-05-23T07:06:58;96467.25;;;17.42;100.00
57232;BME280;43488;46.934;8.276;2023-05-23T07:09:25;96471.81;;;17.46;100.00
57232;BME280;43488;46.934;8.276;2023-05-23T07:11:53;96465.47;;;17.47;100.00
57232;BME280;43488;46.934;8.276;2023-05-23T07:14:20;96452.28;;;17.62;100.00
57232;BME280;43488;46.934;8.276;2023-05-23T07:16:47;96455.19;;;17.61;100.00
57232;BME280;43488;46.934;8.276;2023-05-23T07:19:14;96459.72;;;17.60;100.00
57232;BME280;43488;46.934;8.276;2023-05-23T07:21:42;96455.78;;;17.68;100.00
57232;BME280;43488;46.934;8.276;2023-05-23T07:24:09;96458.56;;;17.78;100.00
57232;BME280;43488;46.934;8.276;2023-05-23T07:26:36;96469.41;;;17.72;100.00
57232;BME280;43488;46.934;8.276;2023-05-23T07:29:03;96461.69;;;17.70;100.00
57232;BME280;43488;46.934;8.276;2023-05-23T07:31:31;96462.03;;;17.79;100.00
57232;BME280;43488;46.934;8.276;2023-05-23T07:33:58;96461.66;;;17.97;100.00
57232;BME280;43488;46.934;8.276;2023-05-23T07:36:25;96467.50;;;17.94;100.00
57232;BME280;43488;46.934;8.276;2023-05-23T07:38:53;96462.25;;;18.09;100.00
57232;BME280;43488;46.934;8.276;2023-05-23T07:41:21;96466.31;;;18.17;100.00
57232;BME280;43488;46.934;8.276;2023-05-23T07:43:48;96463.47;;;18.29;100.00
57232;BME280;43488;46.934;8.276;2023-05-23T07:46:16;96470.94;;;18.32;100.00
57232;BME280;43488;46.934;8.276;2023-05-23T07:48:43;96461.16;;;18.42;100.00
57232;BME280;43488;46.934;8.276;2023-05-23T07:51:11;96464.16;;;18.56;100.00
57232;BME280;43488;46.934;8.276;2023-05-23T07:53:40;96464.00;;;18.68;100.00
57232;BME280;43488;46.934;8.276;2023-05-23T07:56:07;96465.59;;;18.74;100.00
57232;BME280;43488;46.934;8.276;2023-05-23T07:58:35;96467.50;;;18.79;100.00
57232;BME280;43488;46.934;8.276;2023-05-23T08:01:02;96470.19;;;18.84;100.00
57232;BME280;43488;46.934;8.276;2023-05-23T08:03:30;96470.22;;;18.89;100.00
57232;BME280;43488;46.934;8.276;2023-05-23T08:05:57;96465.44;;;18.96;100.00
57232;BME280;43488;46.934;8.276;2023-05-23T08:08:24;96471.09;;;19.15;100.00
57232;BME280;43488;46.934;8.276;2023-05-23T08:10:51;96474.84;;;19.19;100.00
57232;BME280;43488;46.934;8.276;2023-05-23T08:13:19;96466.59;;;19.25;100.00
57232;BME280;43488;46.934;8.276;2023-05-23T08:15:47;96467.69;;;19.29;100.00
57232;BME280;43488;46.934;8.276;2023-05-23T08:18:14;96459.16;;;19.32;100.00
57232;BME280;43488;46.934;8.276;2023-05-23T08:20:44;96462.63;;;19.43;100.00
57232;BME280;43488;46.934;8.276;2023-05-23T08:23:11;96460.50;;;19.40;100.00
57232;BME280;43488;46.934;8.276;2023-05-23T08:25:39;96457.84;;;19.50;100.00
57232;BME280;43488;46.934;8.276;2023-05-23T08:28:08;96463.50;;;19.69;98.99
57232;BME280;43488;46.934;8.276;2023-05-23T08:30:38;96460.59;;;19.86;97.34
57232;BME280;43488;46.934;8.276;2023-05-23T08:33:05;96467.25;;;19.83;96.28
57232;BME280;43488;46.934;8.276;2023-05-23T08:35:33;96470.19;;;19.87;99.73
57232;BME280;43488;46.934;8.276;2023-05-23T08:38:05;96470.72;;;19.79;98.21
57232;BME280;43488;46.934;8.276;2023-05-23T08:40:35;96476.88;;;19.84;98.43
57232;BME280;43488;46.934;8.276;2023-05-23T08:43:04;96467.53;;;19.97;94.06
57232;BME280;43488;46.934;8.276;2023-05-23T08:45:31;96469.38;;;20.02;93.27
57232;BME280;43488;46.934;8.276;2023-05-23T08:48:02;96466.44;;;20.24;97.28
57232;BME280;43488;46.934;8.276;2023-05-23T08:50:36;96470.44;;;20.31;93.85
57232;BME280;43488;46.934;8.276;2023-05-23T08:53:04;96463.75;;;20.24;89.96
57232;BME280;43488;46.934;8.276;2023-05-23T08:55:35;96476.31;;;20.18;89.73
57232;BME280;43488;46.934;8.276;2023-05-23T08:58:03;96467.78;;;19.91;91.55
57232;BME280;43488;46.934;8.276;2023-05-23T09:00:32;96475.78;;;20.01;93.21
57232;BME280;43488;46.934;8.276;2023-05-23T09:03:01;96479.00;;;20.13;95.10
57232;BME280;43488;46.934;8.276;2023-05-23T09:05:28;96485.41;;;20.07;90.58
57232;BME280;43488;46.934;8.276;2023-05-23T09:07:56;96482.47;;;19.93;90.45
57232;BME280;43488;46.934;8.276;2023-05-23T09:10:23;96486.47;;;20.01;93.74
57232;BME280;43488;46.934;8.276;2023-05-23T09:12:50;96482.75;;;20.12;94.17
57232;BME280;43488;46.934;8.276;2023-05-23T09:15:18;96472.06;;;19.97;93.69
57232;BME280;43488;46.934;8.276;2023-05-23T09:17:45;96464.56;;;20.09;93.22
57232;BME280;43488;46.934;8.276;2023-05-23T09:20:16;96468.84;;;20.15;93.74
57232;BME280;43488;46.934;8.276;2023-05-23T09:22:47;96474.16;;;20.35;94.65
57232;BME280;43488;46.934;8.276;2023-05-23T09:25:15;96475.75;;;20.67;94.33
57232;BME280;43488;46.934;8.276;2023-05-23T09:27:43;96469.88;;;20.55;89.37
57232;BME280;43488;46.934;8.276;2023-05-23T09:30:12;96473.91;;;20.52;89.86
57232;BME280;43488;46.934;8.276;2023-05-23T09:32:40;96472.53;;;20.55;90.14
57232;BME280;43488;46.934;8.276;2023-05-23T09:35:08;96475.75;;;20.36;89.90
57232;BME280;43488;46.934;8.276;2023-05-23T09:37:43;96473.66;;;20.43;89.30
57232;BME280;43488;46.934;8.276;2023-05-23T09:40:13;96472.03;;;20.48;88.14
57232;BME280;43488;46.934;8.276;2023-05-23T09:42:46;96465.59;;;20.54;88.80
57232;BME280;43488;46.934;8.276;2023-05-23T09:45:15;96471.44;;;20.76;86.26
57232;BME280;43488;46.934;8.276;2023-05-23T09:47:52;96470.06;;;20.79;87.55
57232;BME280;43488;46.934;8.276;2023-05-23T09:50:22;96469.81;;;20.80;86.83
57232;BME280;43488;46.934;8.276;2023-05-23T09:52:50;96477.53;;;20.87;89.69
57232;BME280;43488;46.934;8.276;2023-05-23T09:55:20;96473.00;;;20.87;85.64
57232;BME280;43488;46.934;8.276;2023-05-23T09:57:52;96476.81;;;20.61;85.95
57232;BME280;43488;46.934;8.276;2023-05-23T10:00:20;96478.94;;;20.64;87.64
57232;BME280;43488;46.934;8.276;2023-05-23T10:05:33;96482.13;;;20.76;86.20
57232;BME280;43488;46.934;8.276;2023-05-23T10:08:07;96476.53;;;20.57;84.22
57232;BME280;43488;46.934;8.276;2023-05-23T10:13:28;96472.78;;;20.63;86.88
57232;BME280;43488;46.934;8.276;2023-05-23T10:16:11;96478.66;;;20.70;90.08
57232;BME280;43488;46.934;8.276;2023-05-23T10:18:44;96473.16;;;21.11;87.65
57232;BME280;43488;46.934;8.276;2023-05-23T10:21:19;96473.31;;;21.40;85.67
57232;BME280;43488;46.934;8.276;2023-05-23T10:23:50;96476.94;;;21.60;85.87
57232;BME280;43488;46.934;8.276;2023-05-23T10:26:17;96460.50;;;21.71;85.81
57232;BME280;43488;46.934;8.276;2023-05-23T10:28:46;96463.31;;;21.90;85.29
57232;BME280;43488;46.934;8.276;2023-05-23T10:31:16;96461.41;;;21.96;79.69
57232;BME280;43488;46.934;8.276;2023-05-23T10:37:05;96466.03;;;21.85;82.44
57232;BME280;43488;46.934;8.276;2023-05-23T10:43:09;96474.19;;;21.70;81.84
57232;BME280;43488;46.934;8.276;2023-05-23T10:45:41;96467.03;;;21.55;79.30
57232;BME280;43488;46.934;8.276;2023-05-23T10:48:31;96472.38;;;21.60;81.69
57232;BME280;43488;46.934;8.276;2023-05-23T10:51:10;96471.81;;;21.63;82.22
57232;BME280;43488;46.934;8.276;2023-05-23T10:53:53;96472.97;;;21.52;82.48
57232;BME280;43488;46.934;8.276;2023-05-23T10:56:23;96467.91;;;21.45;81.58
57232;BME280;43488;46.934;8.276;2023-05-23T10:58:55;96475.13;;;21.50;79.04
57232;BME280;43488;46.934;8.276;2023-05-23T11:01:26;96469.44;;;21.56;78.07
57232;BME280;43488;46.934;8.276;2023-05-23T11:03:54;96473.19;;;21.55;81.31
57232;BME280;43488;46.934;8.276;2023-05-23T11:06:42;96478.78;;;21.64;83.10
57232;BME280;43488;46.934;8.276;2023-05-23T11:09:12;96470.53;;;21.55;84.11
57232;BME280;43488;46.934;8.276;2023-05-23T11:14:50;96468.41;;;21.52;83.25
57232;BME280;43488;46.934;8.276;2023-05-23T11:17:33;96464.41;;;21.50;86.31
57232;BME280;43488;46.934;8.276;2023-05-23T11:20:05;96464.13;;;21.51;85.59
57232;BME280;43488;46.934;8.276;2023-05-23T11:22:34;96464.97;;;21.47;86.53
57232;BME280;43488;46.934;8.276;2023-05-23T11:25:08;96455.81;;;21.53;88.55
57232;BME280;43488;46.934;8.276;2023-05-23T11:27:40;96461.91;;;21.64;89.00
57232;BME280;43488;46.934;8.276;2023-05-23T11:30:16;96465.09;;;21.66;90.32
57232;BME280;43488;46.934;8.276;2023-05-23T11:32:52;96465.63;;;21.68;93.07
57232;BME280;43488;46.934;8.276;2023-05-23T11:35:21;96466.16;;;21.70;85.84
57232;BME280;43488;46.934;8.276;2023-05-23T11:37:49;96460.22;;;21.78;83.42
57232;BME280;43488;46.934;8.276;2023-05-23T11:40:36;96454.75;;;21.88;83.37
57232;BME280;43488;46.934;8.276;2023-05-23T11:43:09;96453.56;;;22.04;85.12
57232;BME280;43488;46.934;8.276;2023-05-23T11:45:39;96448.69;;;22.11;84.15
57232;BME280;43488;46.934;8.276;2023-05-23T11:48:16;96443.63;;;22.05;83.87
57232;BME280;43488;46.934;8.276;2023-05-23T11:50:52;96436.38;;;22.10;80.21
57232;BME280;43488;46.934;8.276;2023-05-23T11:53:21;96436.25;;;22.21;78.99
57232;BME280;43488;46.934;8.276;2023-05-23T11:55:56;96428.81;;;22.18;79.13
57232;BME280;43488;46.934;8.276;2023-05-23T11:58:28;96426.91;;;22.18;79.40
57232;BME280;43488;46.934;8.276;2023-05-23T12:01:04;96426.63;;;22.20;79.68
57232;BME280;43488;46.934;8.276;2023-05-23T12:03:34;96426.34;;;22.21;80.44
57232;BME280;43488;46.934;8.276;2023-05-23T12:06:02;96425.28;;;22.22;78.06
57232;BME280;43488;46.934;8.276;2023-05-23T12:08:29;96417.66;;;22.34;79.32
57232;BME280;43488;46.934;8.276;2023-05-23T12:10:59;96417.56;;;22.16;79.35
57232;BME280;43488;46.934;8.276;2023-05-23T12:13:28;96415.09;;;22.19;78.53
57232;BME280;43488;46.934;8.276;2023-05-23T12:15:59;96412.19;;;22.16;79.23
57232;BME280;43488;46.934;8.276;2023-05-23T12:18:31;96410.53;;;22.20;79.21
57232;BME280;43488;46.934;8.276;2023-05-23T12:21:04;96405.38;;;22.28;78.56
57232;BME280;43488;46.934;8.276;2023-05-23T12:23:35;96400.50;;;22.30;76.75
57232;BME280;43488;46.934;8.276;2023-05-23T12:26:06;96404.34;;;22.48;77.13
57232;BME280;43488;46.934;8.276;2023-05-23T12:28:41;96403.97;;;22.60;75.56
57232;BME280;43488;46.934;8.276;2023-05-23T12:31:37;96400.19;;;22.85;75.95
57232;BME280;43488;46.934;8.276;2023-05-23T12:34:04;96387.31;;;23.06;73.71
57232;BME280;43488;46.934;8.276;2023-05-23T12:36:33;96398.56;;;23.26;70.72
57232;BME280;43488;46.934;8.276;2023-05-23T12:39:04;96402.53;;;23.48;69.15
57232;BME280;43488;46.934;8.276;2023-05-23T12:41:32;96396.97;;;23.63;69.15
57232;BME280;43488;46.934;8.276;2023-05-23T12:44:01;96402.25;;;23.68;67.03
57232;BME280;43488;46.934;8.276;2023-05-23T12:46:28;96388.84;;;23.82;67.03
57232;BME280;43488;46.934;8.276;2023-05-23T12:48:56;96389.84;;;23.86;73.29
57232;BME280;43488;46.934;8.276;2023-05-23T12:51:23;96386.41;;;23.99;68.33
57232;BME280;43488;46.934;8.276;2023-05-23T12:53:50;96379.13;;;24.00;68.66
57232;BME280;43488;46.934;8.276;2023-05-23T12:56:19;96368.69;;;24.12;67.38
57232;BME280;43488;46.934;8.276;2023-05-23T12:58:47;96374.91;;;24.26;65.04
57232;BME280;43488;46.934;8.276;2023-05-23T13:01:14;96374.72;;;24.36;63.28
57232;BME280;43488;46.934;8.276;2023-05-23T13:03:42;96371.22;;;24.50;64.17
57232;BME280;43488;46.934;8.276;2023-05-23T13:06:10;96363.66;;;24.65;64.98
57232;BME280;43488;46.934;8.276;2023-05-23T13:08:39;96372.03;;;24.64;67.89
57232;BME280;43488;46.934;8.276;2023-05-23T13:11:07;96368.47;;;24.55;64.98
57232;BME280;43488;46.934;8.276;2023-05-23T13:13:35;96349.22;;;24.61;63.22
57232;BME280;43488;46.934;8.276;2023-05-23T13:16:02;96352.59;;;24.67;65.17
57232;BME280;43488;46.934;8.276;2023-05-23T13:18:30;96345.44;;;24.62;64.74
57232;BME280;43488;46.934;8.276;2023-05-23T13:20:58;96338.91;;;24.77;63.75
57232;BME280;43488;46.934;8.276;2023-05-23T13:23:26;96338.69;;;25.01;61.77